Time;durP1;ratioP1;P1;durP2;ratioP2;P2;SDS_P1;SDS_P2;PMS_P1;PMS_P2;Temp;Humidity;BMP_temperature;BMP_pressure;BME280_temperature;BME280_humidity;BME280_pressure;Samples;Min_cycle;Max_cycle;Signal;HPM_P1;HPM_P2
2022/02/04 00:05:00;;;;;;;38.30;26.48;;;6.80;99.90;;;;;;5032655;28;20049;-67
2022/02/04 00:10:02;;;;;;;37.95;26.70;;;6.80;99.90;;;;;;5032323;28;20079;-67
2022/02/04 00:23:16;;;;;;;33.03;22.58;;;6.80;99.90;;;;;;5019140;28;20505;-67
2022/02/04 00:28:18;;;;;;;34.20;23.27;;;6.70;99.90;;;;;;5027472;28;20051;-67
2022/02/04 00:30:48;;;;;;;34.83;22.25;;;6.70;99.90;;;;;;5040335;28;20803;-66
2022/02/04 00:33:15;;;;;;;36.70;23.92;;;6.60;99.90;;;;;;5046473;28;20667;-66
2022/02/04 00:38:23;;;;;;;36.00;24.50;;;6.60;99.90;;;;;;5028926;28;20429;-65
2022/02/04 00:40:53;;;;;;;35.92;23.20;;;6.50;99.90;;;;;;5026517;28;20793;-65
2022/02/04 00:43:20;;;;;;;36.95;23.85;;;6.50;99.90;;;;;;5043009;28;20041;-65
2022/02/04 00:45:52;;;;;;;36.63;24.33;;;6.50;99.90;;;;;;5048233;28;20041;-65
2022/02/04 00:51:12;;;;;;;34.00;22.67;;;6.50;99.90;;;;;;5031533;28;20041;-66
2022/02/04 00:53:50;;;;;;;36.53;23.42;;;6.40;99.90;;;;;;5048479;28;20198;-66
2022/02/04 01:26:10;;;;;;;32.33;21.20;;;5.90;99.90;;;;;;5050171;28;20541;-66
2022/02/04 01:28:39;;;;;;;33.13;22.48;;;5.90;99.90;;;;;;5056242;28;20554;-66
2022/02/04 01:31:05;;;;;;;36.58;23.45;;;5.90;99.90;;;;;;5024449;28;20448;-66
2022/02/04 01:33:32;;;;;;;35.50;22.58;;;6.00;99.90;;;;;;5046090;28;20036;-66
2022/02/04 01:35:58;;;;;;;34.40;22.17;;;6.00;99.90;;;;;;5045688;28;20053;-66
2022/02/04 01:38:26;;;;;;;39.70;22.25;;;6.10;99.90;;;;;;5052270;28;20049;-66
2022/02/04 01:40:52;;;;;;;35.83;23.20;;;6.10;99.90;;;;;;5055373;28;20041;-66
2022/02/04 01:43:21;;;;;;;31.35;20.63;;;6.20;99.90;;;;;;5053942;28;20090;-66
2022/02/04 01:46:08;;;;;;;36.97;22.33;;;6.30;99.90;;;;;;5045703;28;20025;-66
2022/02/04 01:48:34;;;;;;;33.55;22.05;;;6.40;99.90;;;;;;5033003;28;20082;-66
2022/02/04 01:51:01;;;;;;;36.80;22.45;;;6.40;99.90;;;;;;5008662;28;20083;-66
2022/02/04 01:53:31;;;;;;;32.72;20.00;;;6.50;99.90;;;;;;5052809;28;20112;-66
2022/02/04 01:55:59;;;;;;;33.15;21.33;;;6.50;99.90;;;;;;5034562;28;20815;-66
2022/02/04 01:58:26;;;;;;;30.02;20.10;;;6.50;99.90;;;;;;5044093;28;20041;-66
2022/02/04 02:00:52;;;;;;;35.58;22.50;;;6.60;99.90;;;;;;5050802;28;20086;-66
2022/02/04 02:03:18;;;;;;;31.90;21.00;;;6.60;99.90;;;;;;5044285;28;20040;-66
2022/02/04 02:05:44;;;;;;;35.53;22.95;;;6.60;99.90;;;;;;5050075;28;20045;-66
2022/02/04 02:08:15;;;;;;;32.33;21.63;;;6.60;99.90;;;;;;5029872;28;20055;-66
2022/02/04 02:10:44;;;;;;;30.83;20.45;;;6.70;99.90;;;;;;5053195;28;20033;-66
2022/02/04 02:13:36;;;;;;;33.17;21.35;;;6.70;99.90;;;;;;5050057;28;20044;-66
2022/02/04 02:16:44;;;;;;;32.40;20.45;;;6.70;99.90;;;;;;5040128;28;20041;-66
2022/02/04 02:33:22;;;;;;;28.90;19.30;;;6.70;99.90;;;;;;5049128;28;20114;-66
2022/02/04 02:39:12;;;;;;;31.67;19.77;;;6.80;99.90;;;;;;5050817;28;20099;-66
2022/02/04 02:44:18;;;;;;;30.20;20.33;;;6.80;99.90;;;;;;5041896;28;20048;-66
2022/02/04 02:47:08;;;;;;;27.50;18.50;;;6.70;99.90;;;;;;5051853;28;20045;-66
2022/02/04 03:00:31;;;;;;;31.00;19.55;;;6.90;99.90;;;;;;5044361;28;20410;-66
2022/02/04 03:03:02;;;;;;;31.10;20.05;;;6.90;99.90;;;;;;5045549;28;20049;-66
2022/02/04 03:05:28;;;;;;;33.45;21.08;;;6.90;99.90;;;;;;5042127;28;20079;-66
2022/02/04 03:07:54;;;;;;;32.90;21.70;;;6.90;99.90;;;;;;5021647;28;20037;-66
2022/02/04 03:10:19;;;;;;;30.50;19.40;;;6.90;99.90;;;;;;5049776;28;20040;-66
2022/02/04 03:12:45;;;;;;;31.50;20.40;;;6.90;99.90;;;;;;5046297;28;20037;-66
2022/02/04 03:15:11;;;;;;;33.17;21.55;;;6.90;99.90;;;;;;5052503;28;20386;-66
2022/02/04 03:17:39;;;;;;;32.67;21.17;;;6.90;99.90;;;;;;5051228;28;20064;-66
2022/02/04 03:20:08;;;;;;;31.10;20.83;;;6.90;99.90;;;;;;5052164;28;20052;-66
2022/02/04 03:22:35;;;;;;;33.72;20.88;;;6.90;99.90;;;;;;5049263;28;20455;-66
2022/02/04 03:25:05;;;;;;;32.55;21.10;;;6.90;99.90;;;;;;5033574;28;20041;-66
2022/02/04 03:27:49;;;;;;;32.95;21.58;;;6.90;99.90;;;;;;5021262;28;20356;-66
2022/02/04 03:32:46;;;;;;;36.22;22.50;;;6.90;99.90;;;;;;5044340;28;20748;-66
2022/02/04 03:35:18;;;;;;;35.80;21.92;;;6.90;99.90;;;;;;5042572;28;20111;-66
2022/02/04 03:37:43;;;;;;;34.47;22.98;;;6.90;99.90;;;;;;5045900;28;20098;-66
2022/02/04 03:40:09;;;;;;;34.75;20.90;;;7.00;99.90;;;;;;5050139;28;20060;-66
2022/02/04 03:42:35;;;;;;;35.85;22.30;;;7.00;99.90;;;;;;5038537;28;20041;-66
2022/02/04 03:45:00;;;;;;;36.45;25.08;;;7.00;99.90;;;;;;5045612;28;20045;-66
2022/02/04 03:47:26;;;;;;;33.13;21.23;;;7.00;99.90;;;;;;5051433;28;20047;-66
2022/02/04 03:49:51;;;;;;;35.05;22.35;;;7.00;99.90;;;;;;5048078;28;20131;-66
2022/02/04 03:52:17;;;;;;;32.20;21.70;;;7.10;99.90;;;;;;5050026;28;20071;-66
2022/02/04 03:54:42;;;;;;;34.97;22.83;;;7.10;99.90;;;;;;5031819;28;20052;-66
2022/02/04 03:57:08;;;;;;;33.17;22.52;;;7.10;99.90;;;;;;5029322;28;20471;-66
2022/02/04 03:59:33;;;;;;;34.88;22.50;;;7.10;99.90;;;;;;5003630;28;20048;-66
2022/02/04 04:01:59;;;;;;;33.97;22.73;;;7.10;99.90;;;;;;5049327;28;20049;-66
2022/02/04 04:04:31;;;;;;;36.67;23.52;;;7.10;99.90;;;;;;5048585;28;20041;-65
2022/02/04 04:06:58;;;;;;;34.47;23.20;;;7.10;99.90;;;;;;5040611;28;20052;-65
2022/02/04 04:09:24;;;;;;;32.40;23.48;;;7.10;99.90;;;;;;5002953;28;20133;-65
2022/02/04 04:11:50;;;;;;;33.80;23.60;;;7.10;99.90;;;;;;5042236;28;20495;-65
2022/02/04 04:14:17;;;;;;;31.63;22.27;;;7.10;99.90;;;;;;5028259;28;20040;-65
2022/02/04 04:16:43;;;;;;;31.95;21.60;;;7.10;99.90;;;;;;5032535;28;20048;-65
2022/02/04 04:19:08;;;;;;;27.98;19.65;;;7.10;99.90;;;;;;5049143;28;20492;-66
2022/02/04 04:21:34;;;;;;;32.00;21.83;;;7.20;99.90;;;;;;5023342;28;20128;-66
2022/02/04 04:24:00;;;;;;;29.90;21.48;;;7.20;99.90;;;;;;5046916;28;20048;-66
2022/02/04 04:26:26;;;;;;;31.80;20.83;;;7.30;99.90;;;;;;5043750;28;20383;-66
2022/02/04 04:28:52;;;;;;;32.33;22.45;;;7.30;99.90;;;;;;5047180;28;20186;-66
2022/02/04 04:31:19;;;;;;;27.58;20.85;;;7.30;99.90;;;;;;5027577;28;20521;-66
2022/02/04 04:33:45;;;;;;;30.83;21.10;;;7.30;99.90;;;;;;5025829;28;20036;-66
2022/02/04 04:36:11;;;;;;;30.42;21.20;;;7.30;99.90;;;;;;5041658;28;20060;-66
2022/02/04 04:38:43;;;;;;;31.25;21.73;;;7.30;99.90;;;;;;5045287;28;20045;-66
2022/02/04 04:44:07;;;;;;;28.20;21.33;;;7.30;99.90;;;;;;5037405;28;20518;-66
2022/02/04 04:47:00;;;;;;;28.63;20.40;;;7.30;99.90;;;;;;5047795;28;20149;-66
2022/02/04 05:30:40;;;;;;;26.20;19.27;;;7.50;99.90;;;;;;5048829;28;20078;-64
2022/02/04 05:33:05;;;;;;;27.92;18.48;;;7.50;99.90;;;;;;5092980;28;20032;-66
2022/02/04 05:35:31;;;;;;;25.40;19.08;;;7.50;99.90;;;;;;5091448;28;20064;-65
2022/02/04 05:37:57;;;;;;;23.45;18.25;;;7.40;99.90;;;;;;5088788;28;20035;-64
2022/02/04 05:40:26;;;;;;;22.15;17.80;;;7.50;99.90;;;;;;5083700;28;20045;-66
2022/02/04 05:42:58;;;;;;;23.98;18.60;;;7.50;99.90;;;;;;5079463;28;20075;-65
2022/02/04 05:45:27;;;;;;;;;;;7.50;99.90;;;;;;5091080;28;20047;-65
2022/02/04 05:47:59;;;;;;;23.13;17.65;;;7.50;99.90;;;;;;5093219;28;19953;-64
2022/02/04 05:50:39;;;;;;;26.17;18.25;;;7.50;99.90;;;;;;5090361;28;20059;-64
2022/02/04 05:53:22;;;;;;;22.90;17.58;;;7.50;99.90;;;;;;5092374;28;20078;-64
2022/02/04 05:58:32;;;;;;;22.40;13.70;;;7.50;99.90;;;;;;5092931;28;20035;-65
2022/02/04 06:24:05;;;;;;;19.02;13.85;;;7.50;99.90;;;;;;5085621;28;20097;-65
2022/02/04 06:26:31;;;;;;;17.77;14.73;;;7.70;99.90;;;;;;5086249;28;20493;-64
2022/02/04 06:28:57;;;;;;;20.00;13.68;;;7.70;99.90;;;;;;5090651;28;20040;-65
2022/02/04 06:31:23;;;;;;;20.95;14.85;;;7.70;99.90;;;;;;5091631;28;20032;-65
2022/02/04 06:33:49;;;;;;;20.58;15.30;;;7.60;99.90;;;;;;5096951;28;20043;-65
2022/02/04 06:36:14;;;;;;;17.63;14.55;;;7.60;99.90;;;;;;5093409;28;20040;-66
2022/02/04 06:38:40;;;;;;;21.08;14.90;;;7.60;99.90;;;;;;5089168;28;20108;-65
2022/02/04 06:41:06;;;;;;;19.33;14.27;;;7.60;99.90;;;;;;5085947;28;20519;-65
2022/02/04 06:43:32;;;;;;;20.92;14.63;;;7.60;99.90;;;;;;5060861;28;20062;-65
2022/02/04 06:45:58;;;;;;;18.75;13.43;;;7.60;99.90;;;;;;5087256;28;20040;-66
2022/02/04 06:48:24;;;;;;;18.38;14.10;;;7.70;99.90;;;;;;5090643;28;20122;-66
2022/02/04 06:50:50;;;;;;;16.80;13.43;;;7.70;99.90;;;;;;5103141;28;20139;-65
2022/02/04 06:53:16;;;;;;;19.50;14.02;;;7.60;99.90;;;;;;5091494;28;20052;-65
2022/02/04 06:55:42;;;;;;;17.38;14.23;;;7.60;99.90;;;;;;5090419;28;20040;-66
2022/02/04 06:58:08;;;;;;;19.00;14.32;;;7.60;99.90;;;;;;5087930;28;20130;-65
2022/02/04 07:00:34;;;;;;;20.58;14.40;;;7.70;99.90;;;;;;5086304;28;20085;-65
2022/02/04 07:03:00;;;;;;;21.23;13.63;;;7.70;99.90;;;;;;5089524;28;20048;-65
2022/02/04 07:05:26;;;;;;;18.65;14.05;;;7.70;99.90;;;;;;5068365;28;20040;-65
2022/02/04 07:08:08;;;;;;;17.63;14.00;;;7.60;99.90;;;;;;5087591;28;20053;-65
2022/02/04 07:10:50;;;;;;;16.38;14.45;;;7.60;99.90;;;;;;5079468;28;20047;-65
2022/02/04 07:13:23;;;;;;;18.88;13.18;;;7.70;99.90;;;;;;5087489;28;20032;-65
2022/02/04 07:15:53;;;;;;;17.02;12.57;;;7.70;99.90;;;;;;5090078;28;20036;-65
2022/02/04 07:21:06;;;;;;;18.02;14.13;;;7.70;99.90;;;;;;5088269;28;20073;-65
2022/02/04 07:23:33;;;;;;;17.60;13.25;;;7.60;99.90;;;;;;5089575;28;20032;-66
2022/02/04 07:25:58;;;;;;;16.40;12.60;;;7.70;99.90;;;;;;5087963;28;20435;-65
2022/02/04 07:28:24;;;;;;;16.60;12.77;;;7.70;99.90;;;;;;5089793;28;20039;-66
2022/02/04 07:30:51;;;;;;;20.05;12.88;;;7.70;99.90;;;;;;5085210;28;20043;-65
2022/02/04 07:33:20;;;;;;;11.52;8.27;;;7.80;99.90;;;;;;5087929;28;20036;-66
2022/02/04 07:41:04;;;;;;;18.73;14.80;;;7.80;99.90;;;;;;5087946;28;20058;-66
2022/02/04 07:43:30;;;;;;;16.30;13.43;;;7.80;99.90;;;;;;5085110;28;20036;-66
2022/02/04 07:45:57;;;;;;;15.63;12.18;;;7.70;99.90;;;;;;5088791;28;20055;-66
2022/02/04 07:48:24;;;;;;;16.90;11.73;;;7.70;99.90;;;;;;5073306;28;20044;-66
2022/02/04 07:50:50;;;;;;;13.60;11.63;;;7.80;99.90;;;;;;5089654;28;20454;-64
2022/02/04 07:53:17;;;;;;;12.40;10.82;;;7.80;99.90;;;;;;5089191;28;20080;-65
2022/02/04 07:55:43;;;;;;;14.98;12.00;;;7.80;99.90;;;;;;5090903;28;20044;-65
2022/02/04 07:58:11;;;;;;;14.38;12.00;;;7.80;99.90;;;;;;5091098;28;20366;-65
2022/02/04 08:00:39;;;;;;;13.02;11.60;;;7.80;99.90;;;;;;5076155;28;20063;-65
2022/02/04 08:03:20;;;;;;;13.82;11.70;;;7.90;99.90;;;;;;5088222;28;20097;-65
2022/02/04 08:05:47;;;;;;;14.20;11.50;;;7.80;99.90;;;;;;5084373;28;20048;-64
2022/02/04 08:08:41;;;;;;;13.65;10.82;;;7.80;99.90;;;;;;5086037;28;20298;-65
2022/02/04 08:14:20;;;;;;;11.93;10.02;;;7.90;99.90;;;;;;5088286;28;20473;-66
2022/02/04 08:21:53;;;;;;;12.40;9.27;;;7.90;99.90;;;;;;5089269;28;20043;-66
2022/02/04 08:29:44;;;;;;;9.82;8.82;;;8.10;99.90;;;;;;5082716;28;20854;-66
2022/02/04 08:48:46;;;;;;;8.98;7.95;;;8.20;99.90;;;;;;5086877;28;20043;-67
2022/02/04 08:53:49;;;;;;;9.50;8.13;;;8.30;99.90;;;;;;5091723;28;20040;-67
2022/02/04 08:56:20;;;;;;;9.77;8.30;;;8.30;99.90;;;;;;5084085;28;20040;-66
2022/02/04 08:58:53;;;;;;;9.65;7.55;;;8.40;99.90;;;;;;5074811;28;20047;-68
2022/02/04 09:01:24;;;;;;;11.25;8.00;;;8.50;99.90;;;;;;5084382;28;20457;-67
2022/02/04 09:04:05;;;;;;;9.50;8.23;;;8.50;99.90;;;;;;5077453;28;20082;-67
2022/02/04 09:06:37;;;;;;;8.90;8.00;;;8.50;99.90;;;;;;5054524;28;20128;-66
2022/02/04 09:09:05;;;;;;;10.35;8.50;;;8.50;99.90;;;;;;5075269;28;20036;-66
2022/02/04 09:19:22;;;;;;;9.43;8.52;;;8.60;99.90;;;;;;5075130;28;20048;-66
2022/02/04 09:24:22;;;;;;;11.13;8.02;;;8.60;99.90;;;;;;5073699;28;20040;-67
2022/02/04 09:26:51;;;;;;;10.85;9.00;;;8.60;99.90;;;;;;5070104;28;20067;-67
2022/02/04 09:29:16;;;;;;;9.00;8.02;;;8.60;99.90;;;;;;5065692;28;20046;-66
2022/02/04 09:31:42;;;;;;;9.07;8.18;;;8.60;99.90;;;;;;5079010;28;20032;-67
2022/02/04 09:34:09;;;;;;;10.43;8.50;;;8.60;99.90;;;;;;5074597;28;20473;-66
2022/02/04 09:36:35;;;;;;;8.63;7.82;;;8.70;99.90;;;;;;5085925;28;20493;-66
2022/02/04 09:39:01;;;;;;;10.20;9.05;;;8.60;99.90;;;;;;5087890;28;20371;-66
2022/02/04 09:41:27;;;;;;;9.00;8.20;;;8.70;99.90;;;;;;5093572;28;20036;-66
2022/02/04 09:43:53;;;;;;;9.60;8.60;;;8.70;99.90;;;;;;5085922;28;20481;-67
2022/02/04 09:46:19;;;;;;;10.52;9.50;;;8.70;99.90;;;;;;5086440;28;20054;-67
2022/02/04 09:48:50;;;;;;;10.35;8.52;;;8.80;99.90;;;;;;5074189;28;20072;-67
2022/02/04 09:51:20;;;;;;;9.18;8.18;;;8.80;99.90;;;;;;5073733;28;20108;-68
2022/02/04 10:05:57;;;;;;;8.88;7.95;;;8.80;99.90;;;;;;5073945;28;20079;-67
2022/02/04 10:14:35;;;;;;;9.60;8.70;;;9.00;99.90;;;;;;5034383;28;20518;-67
2022/02/04 10:17:22;;;;;;;10.10;8.55;;;9.00;99.90;;;;;;5089397;28;20282;-68
2022/02/04 10:22:20;;;;;;;10.38;8.05;;;9.10;99.90;;;;;;5073515;28;20106;-67
2022/02/04 10:25:01;;;;;;;9.45;8.55;;;9.30;99.90;;;;;;5073561;28;20331;-67
2022/02/04 10:27:32;;;;;;;9.10;8.20;;;9.40;99.90;;;;;;5074807;28;20123;-67
2022/02/04 10:30:11;;;;;;;8.60;7.80;;;9.40;99.90;;;;;;5073835;28;20374;-67
2022/02/04 10:32:43;;;;;;;8.80;7.90;;;9.50;99.90;;;;;;5073487;28;20097;-67
2022/02/04 10:35:14;;;;;;;7.80;6.82;;;9.50;99.90;;;;;;5082399;28;20048;-67
2022/02/04 10:37:56;;;;;;;8.10;7.32;;;9.60;99.90;;;;;;5080698;28;20048;-67
2022/02/04 10:40:28;;;;;;;8.45;7.65;;;9.70;99.90;;;;;;5090829;28;20052;-68
2022/02/04 10:45:38;;;;;;;9.27;7.60;;;9.60;99.90;;;;;;5089473;28;19987;-67
2022/02/04 10:49:11;;;;;;;8.50;7.70;;;9.60;99.90;;;;;;5080292;28;20045;-68
2022/02/04 10:56:44;;;;;;;8.25;7.55;;;9.70;99.90;;;;;;5078150;28;20132;-67
2022/02/04 10:59:25;;;;;;;9.30;7.95;;;9.70;99.90;;;;;;5072653;28;20052;-68
2022/02/04 11:04:33;;;;;;;9.60;7.28;;;9.70;99.90;;;;;;5077265;28;20037;-67
2022/02/04 11:21:58;;;;;;;8.38;7.57;;;9.60;99.90;;;;;;5081396;28;20131;-67
2022/02/04 11:35:06;;;;;;;8.57;5.70;;;10.20;99.90;;;;;;5079593;28;20044;-68
2022/02/04 11:52:27;;;;;;;5.53;4.95;;;10.40;99.90;;;;;;5083794;28;20044;-67
2022/02/04 11:54:54;;;;;;;5.22;4.72;;;10.40;99.90;;;;;;5074369;28;20139;-68
2022/02/04 11:57:26;;;;;;;4.72;4.32;;;10.30;99.90;;;;;;5084704;28;20063;-69
2022/02/04 11:59:58;;;;;;;10.07;4.85;;;10.30;99.90;;;;;;5085273;28;20123;-68
2022/02/04 12:02:24;;;;;;;;;;;10.20;99.90;;;;;;5061170;28;20055;-67
2022/02/04 12:05:12;;;;;;;4.57;4.03;;;10.10;99.90;;;;;;5087880;28;19915;-68
2022/02/04 12:07:48;;;;;;;6.95;4.57;;;10.10;99.90;;;;;;5071792;28;20048;-67
2022/02/04 12:10:13;;;;;;;6.40;4.35;;;10.10;99.90;;;;;;5069025;28;20083;-67
2022/02/04 12:13:09;;;;;;;4.15;3.75;;;10.10;99.90;;;;;;5091015;28;20059;-67
2022/02/04 12:16:06;;;;;;;5.47;4.20;;;10.10;99.90;;;;;;5076181;28;20064;-67
2022/02/04 12:18:40;;;;;;;4.47;3.45;;;10.20;99.90;;;;;;5070216;28;20458;-67
2022/02/04 12:21:05;;;;;;;4.18;3.47;;;10.30;99.90;;;;;;5083503;28;20473;-67
2022/02/04 12:23:32;;;;;;;4.88;3.80;;;10.30;99.90;;;;;;5088405;28;20034;-67
2022/02/04 12:26:10;;;;;;;5.28;3.33;;;10.30;99.90;;;;;;5088933;28;20075;-68
2022/02/04 12:28:50;;;;;;;5.63;3.58;;;10.30;99.90;;;;;;5100864;28;20048;-68
2022/02/04 12:31:30;;;;;;;5.20;3.40;;;10.30;99.90;;;;;;5075266;28;21049;-68
2022/02/04 12:34:03;;;;;;;4.45;3.47;;;10.30;99.90;;;;;;5075237;28;20127;-68
2022/02/04 12:36:34;;;;;;;4.45;3.40;;;10.20;99.90;;;;;;5075939;28;20044;-67
2022/02/04 12:39:03;;;;;;;2.83;2.63;;;10.20;99.90;;;;;;5080188;28;20062;-68
2022/02/04 12:41:31;;;;;;;7.53;3.75;;;10.20;99.90;;;;;;5082844;28;20120;-68
2022/02/04 12:43:59;;;;;;;5.80;3.38;;;10.20;99.90;;;;;;5083651;28;20041;-67
2022/02/04 12:46:27;;;;;;;6.15;3.13;;;10.10;99.90;;;;;;5085188;28;20384;-68
2022/02/04 12:49:07;;;;;;;3.22;2.65;;;10.10;99.90;;;;;;5081325;28;20071;-68
2022/02/04 12:52:07;;;;;;;3.35;2.78;;;10.10;99.90;;;;;;5086280;28;20122;-68
2022/02/04 12:54:42;;;;;;;2.60;2.40;;;10.00;99.90;;;;;;5080250;28;20088;-68
2022/02/04 13:08:21;;;;;;;6.18;3.00;;;9.80;99.90;;;;;;5090035;28;20044;-66
2022/02/04 13:11:08;;;;;;;4.78;2.95;;;9.70;99.90;;;;;;5080992;28;20122;-66
2022/02/04 13:13:47;;;;;;;4.30;2.85;;;9.60;99.90;;;;;;5075990;28;20115;-66
2022/02/04 13:16:24;;;;;;;4.55;3.30;;;9.60;99.90;;;;;;5079275;28;20036;-66
2022/02/04 13:18:50;;;;;;;5.88;3.10;;;9.50;99.90;;;;;;5087524;28;20097;-66
2022/02/04 13:21:16;;;;;;;5.85;3.33;;;9.50;99.90;;;;;;5080682;28;20450;-67
2022/02/04 13:23:42;;;;;;;4.00;3.22;;;9.40;99.90;;;;;;5087234;28;20085;-67
2022/02/04 13:26:07;;;;;;;7.45;3.35;;;9.20;99.90;;;;;;5085931;28;20060;-67
2022/02/04 13:28:37;;;;;;;7.93;3.80;;;9.10;99.90;;;;;;5080551;28;20032;-67
2022/02/04 13:31:03;;;;;;;4.25;3.50;;;9.10;99.90;;;;;;5082608;28;20101;-68
2022/02/04 13:33:37;;;;;;;5.93;4.15;;;9.00;99.90;;;;;;5090025;28;20040;-68
2022/02/04 13:43:43;;;;;;;6.53;4.53;;;8.70;99.90;;;;;;5090174;28;20096;-68
2022/02/04 13:46:21;;;;;;;5.00;3.70;;;8.70;99.90;;;;;;5088765;28;20082;-68
2022/02/04 13:49:10;;;;;;;4.63;1.50;;;8.60;99.90;;;;;;5079391;28;20050;-68
2022/02/04 13:51:47;;;;;;;4.47;0.70;;;8.60;99.90;;;;;;5074129;28;20048;-67
2022/02/04 13:56:54;;;;;;;0.88;0.70;;;7.60;99.90;;;;;;5093467;28;20089;-68
2022/02/04 13:59:38;;;;;;;2.63;0.50;;;7.40;99.90;;;;;;5081228;28;20055;-67
2022/02/04 14:02:10;;;;;;;1.98;0.40;;;7.20;99.90;;;;;;5089437;28;20048;-66
2022/02/04 14:04:36;;;;;;;1.42;0.60;;;6.90;99.90;;;;;;5083564;28;20032;-66
2022/02/04 14:07:09;;;;;;;2.17;0.40;;;6.70;99.90;;;;;;5089541;28;20055;-66
2022/02/04 14:09:39;;;;;;;1.30;0.35;;;6.50;99.90;;;;;;5089383;28;20036;-67
2022/02/04 14:12:15;;;;;;;0.57;0.20;;;6.00;99.90;;;;;;5082467;28;20131;-66
2022/02/04 14:14:41;;;;;;;0.43;0.20;;;5.80;99.90;;;;;;5091841;28;20038;-67
2022/02/04 14:17:07;;;;;;;0.28;0.28;;;5.60;99.90;;;;;;5087124;28;20044;-67
2022/02/04 14:19:32;;;;;;;1.00;0.40;;;5.30;99.90;;;;;;5084874;28;20082;-67
2022/02/04 14:21:58;;;;;;;0.77;0.20;;;5.30;99.90;;;;;;5087991;28;20111;-68
2022/02/04 14:24:24;;;;;;;0.20;0.20;;;5.00;99.90;;;;;;5091051;28;20028;-68
2022/02/04 14:26:51;;;;;;;0.80;0.77;;;4.80;99.90;;;;;;5086154;28;20051;-68
2022/02/04 14:32:21;;;;;;;0.40;0.40;;;4.60;99.90;;;;;;5083989;28;20080;-67
2022/02/04 14:53:26;;;;;;;1.20;0.40;;;4.00;99.90;;;;;;5078503;28;20047;-68
2022/02/04 15:01:20;;;;;;;0.60;0.50;;;3.80;99.90;;;;;;5078162;28;20598;-68
2022/02/04 15:04:01;;;;;;;0.50;0.40;;;3.90;99.90;;;;;;5078313;28;20116;-68
2022/02/04 15:06:33;;;;;;;0.75;0.50;;;3.90;99.90;;;;;;5079806;28;20048;-66
2022/02/04 15:09:00;;;;;;;1.95;0.50;;;3.90;99.90;;;;;;5085264;28;20119;-66
2022/02/04 15:11:31;;;;;;;1.15;0.50;;;3.90;99.90;;;;;;5083485;28;20584;-66
2022/02/04 15:13:59;;;;;;;0.65;0.40;;;3.90;99.90;;;;;;5088562;28;20119;-67
2022/02/04 15:16:26;;;;;;;1.35;0.55;;;3.90;99.90;;;;;;5088757;28;20385;-67
2022/02/04 15:18:52;;;;;;;0.50;0.30;;;4.00;99.90;;;;;;5086905;28;20059;-67
2022/02/04 15:21:19;;;;;;;0.73;0.70;;;3.90;99.90;;;;;;5083156;28;20047;-67
2022/02/04 15:23:49;;;;;;;0.95;0.30;;;4.10;99.90;;;;;;5080536;28;20036;-68
2022/02/04 15:26:16;;;;;;;0.45;0.40;;;4.20;99.90;;;;;;5086289;28;20071;-67
2022/02/04 15:29:24;;;;;;;0.85;0.47;;;4.10;99.90;;;;;;5079780;28;20089;-67
2022/02/04 15:31:44;;;;;;;0.85;0.63;;;4.10;99.90;;;;;;5084714;28;20059;-66
2022/02/04 15:34:11;;;;;;;1.77;0.50;;;4.00;99.90;;;;;;5095510;28;20425;-67
2022/02/04 15:36:44;;;;;;;1.52;0.90;;;4.10;99.90;;;;;;5090326;28;20382;-67
2022/02/04 15:39:15;;;;;;;0.70;0.60;;;4.20;99.90;;;;;;5079223;28;20060;-68
2022/02/04 15:41:41;;;;;;;0.57;0.50;;;4.10;99.90;;;;;;5086499;28;20129;-67
2022/02/04 15:49:21;;;;;;;1.13;0.50;;;4.10;99.90;;;;;;5082999;28;20055;-67
2022/02/04 15:54:40;;;;;;;2.50;1.38;;;4.10;99.90;;;;;;5087877;28;20052;-67
2022/02/04 16:00:14;;;;;;;1.85;1.30;;;4.10;99.90;;;;;;5086761;28;20073;-68
2022/02/04 16:05:05;;;;;;;3.28;1.08;;;4.00;99.90;;;;;;5087261;28;20123;-68
2022/02/04 16:07:33;;;;;;;1.60;1.35;;;4.10;99.90;;;;;;5072688;28;20105;-68
2022/02/04 16:10:06;;;;;;;1.73;1.00;;;4.00;99.90;;;;;;5072168;28;20032;-67
2022/02/04 16:12:51;;;;;;;2.10;0.80;;;4.10;99.90;;;;;;5067799;28;20036;-68
2022/02/04 16:15:30;;;;;;;2.72;1.17;;;4.10;99.90;;;;;;5086676;28;20648;-68
2022/02/04 16:17:58;;;;;;;2.40;0.80;;;4.10;99.90;;;;;;5096884;28;20055;-68
2022/02/04 16:20:27;;;;;;;1.42;0.77;;;4.10;99.90;;;;;;5087960;28;20040;-68
2022/02/04 16:30:42;;;;;;;1.50;0.80;;;4.00;99.90;;;;;;5089666;28;20042;-67
2022/02/04 16:33:08;;;;;;;2.13;0.80;;;3.90;99.90;;;;;;5089359;28;20130;-68
2022/02/04 16:35:34;;;;;;;1.60;1.00;;;4.00;99.90;;;;;;5082749;28;20043;-67
2022/02/04 16:38:04;;;;;;;2.08;0.80;;;4.10;99.90;;;;;;5087145;28;20051;-67
2022/02/04 16:40:34;;;;;;;1.77;1.20;;;4.10;99.90;;;;;;5085995;28;20048;-67
2022/02/04 16:43:01;;;;;;;4.90;1.77;;;4.10;99.90;;;;;;5069351;28;20432;-66
2022/02/04 16:45:27;;;;;;;2.85;1.00;;;4.10;99.90;;;;;;5087960;28;20028;-67
2022/02/04 16:47:55;;;;;;;2.28;1.13;;;4.10;99.90;;;;;;5088831;28;20310;-67
2022/02/04 16:50:21;;;;;;;8.40;3.20;;;4.20;99.90;;;;;;5081773;28;20027;-68
2022/02/04 16:52:48;;;;;;;2.80;1.20;;;4.20;99.90;;;;;;5089234;28;20105;-66
2022/02/04 16:55:13;;;;;;;2.05;1.00;;;4.10;99.90;;;;;;5090046;28;20060;-68
2022/02/04 16:57:40;;;;;;;2.38;1.00;;;4.10;99.90;;;;;;5084071;28;20054;-68
2022/02/04 17:00:19;;;;;;;5.90;1.00;;;4.10;99.90;;;;;;5068092;28;20048;-67
2022/02/04 17:02:45;;;;;;;5.47;1.50;;;4.10;99.90;;;;;;5084256;28;20123;-66
2022/02/04 17:05:10;;;;;;;5.20;1.50;;;4.10;99.90;;;;;;5094276;22;20028;-74
2022/02/04 17:07:38;;;;;;;4.32;0.80;;;4.00;99.90;;;;;;5044784;28;20506;-75
2022/02/04 17:10:07;;;;;;;5.20;0.90;;;4.10;99.90;;;;;;5049080;28;20029;-75
2022/02/04 17:12:41;;;;;;;4.32;1.27;;;4.10;99.90;;;;;;5045767;28;20037;-75
2022/02/04 17:15:08;;;;;;;3.70;0.85;;;4.20;99.90;;;;;;5033200;28;20037;-75
2022/02/04 17:17:34;;;;;;;2.08;0.60;;;4.30;99.90;;;;;;5043053;28;20098;-75
2022/02/04 17:20:12;;;;;;;4.85;1.02;;;4.20;99.90;;;;;;5044009;28;20447;-76
2022/02/04 17:22:38;;;;;;;4.70;0.40;;;4.30;99.90;;;;;;5045715;28;20045;-75
2022/02/04 17:25:11;;;;;;;2.17;0.98;;;4.40;99.90;;;;;;5031717;28;20049;-74
2022/02/04 17:27:39;;;;;;;2.63;0.70;;;4.30;99.90;;;;;;5026694;28;20041;-75
2022/02/04 17:30:08;;;;;;;3.33;0.68;;;4.30;99.90;;;;;;5047620;28;20110;-75
2022/02/04 17:32:34;;;;;;;2.67;0.80;;;4.40;99.90;;;;;;5054031;28;20069;-75
2022/02/04 17:34:59;;;;;;;5.57;0.70;;;4.40;99.90;;;;;;5047508;28;20130;-75
2022/02/04 17:37:25;;;;;;;6.15;1.33;;;4.50;99.90;;;;;;5056154;28;20486;-75
2022/02/04 17:39:53;;;;;;;2.95;0.85;;;4.40;99.90;;;;;;5050902;28;20497;-75
2022/02/04 17:42:23;;;;;;;3.15;1.25;;;4.40;99.90;;;;;;5052846;28;20052;-75
2022/02/04 17:44:51;;;;;;;4.07;0.73;;;4.40;99.90;;;;;;5047854;28;20037;-75
2022/02/04 17:47:17;;;;;;;5.57;0.93;;;4.50;99.90;;;;;;5064600;28;20119;-75
2022/02/04 17:49:54;;;;;;;5.05;1.00;;;4.30;99.90;;;;;;5038512;28;20033;-75
2022/02/04 17:52:24;;;;;;;4.25;0.80;;;4.20;99.90;;;;;;5049998;28;20028;-75
2022/02/04 17:55:04;;;;;;;7.18;1.45;;;4.20;99.90;;;;;;5056216;28;20121;-76
2022/02/04 17:57:42;;;;;;;3.97;0.80;;;4.10;99.90;;;;;;5047414;28;20174;-75
2022/02/04 18:03:03;;;;;;;5.03;0.90;;;4.00;99.90;;;;;;5053404;28;20049;-75
2022/02/04 18:08:14;;;;;;;6.80;0.90;;;3.90;99.90;;;;;;5062450;28;20577;-75
2022/02/04 18:10:40;;;;;;;6.72;1.25;;;3.80;99.90;;;;;;5044710;28;20127;-75
2022/02/04 18:13:07;;;;;;;4.28;1.05;;;3.80;99.90;;;;;;5049887;28;20041;-75
2022/02/04 18:15:33;;;;;;;4.93;1.13;;;3.70;99.90;;;;;;5035112;28;20493;-74
2022/02/04 18:17:58;;;;;;;3.92;0.88;;;3.60;99.90;;;;;;5051503;28;20064;-74
2022/02/04 18:20:24;;;;;;;6.00;1.20;;;3.60;99.90;;;;;;5056659;28;20075;-75
2022/02/04 18:22:50;;;;;;;4.10;0.90;;;3.60;99.90;;;;;;5029936;28;20036;-75
2022/02/04 18:25:18;;;;;;;7.07;1.17;;;3.50;99.90;;;;;;5052907;28;20040;-75
2022/02/04 18:27:47;;;;;;;5.38;1.85;;;3.50;99.90;;;;;;5049570;28;20044;-75
2022/02/04 18:30:15;;;;;;;5.82;1.40;;;3.70;99.90;;;;;;5041156;28;20047;-75
2022/02/04 18:32:45;;;;;;;4.97;1.02;;;3.70;99.90;;;;;;5047067;28;20037;-75
2022/02/04 18:35:11;;;;;;;7.85;1.60;;;3.70;99.90;;;;;;5051162;28;20047;-74
2022/02/04 18:37:41;;;;;;;4.70;1.02;;;3.70;99.90;;;;;;5051420;28;20037;-75
2022/02/04 18:43:20;;;;;;;5.72;0.85;;;3.70;99.90;;;;;;5019830;28;20103;-74
2022/02/04 18:45:49;;;;;;;9.18;1.88;;;3.70;99.90;;;;;;5045719;28;20045;-75
2022/02/04 18:48:19;;;;;;;5.90;1.30;;;3.70;99.90;;;;;;5056747;28;20177;-75
2022/02/04 18:51:16;;;;;;;8.77;1.25;;;3.70;99.90;;;;;;5045893;28;20512;-75
2022/02/04 18:53:41;;;;;;;10.63;1.58;;;3.70;99.90;;;;;;5041226;28;20056;-75
2022/02/04 18:56:29;;;;;;;6.45;1.60;;;3.70;99.90;;;;;;5053091;28;20036;-75
2022/02/04 18:58:55;;;;;;;10.70;1.70;;;3.70;99.90;;;;;;5049273;28;20041;-75
2022/02/04 19:01:25;;;;;;;11.68;1.70;;;3.70;99.90;;;;;;5034371;28;20047;-75
2022/02/04 19:03:55;;;;;;;12.05;1.88;;;3.80;99.90;;;;;;5050095;28;20053;-75